sensor_id;sensor_type;location;lat;lon;timestamp;pressure;altitude;pressure_sealevel;temperature;humidity
50684;BME280;36654;45.042;38.994;2023-04-19T00:00:41;100681.91;;;14.27;64.53
50684;BME280;36654;45.042;38.994;2023-04-19T00:03:08;100699.72;;;14.23;64.74
50684;BME280;36654;45.042;38.994;2023-04-19T00:05:34;100718.44;;;14.10;64.97
50684;BME280;36654;45.042;38.994;2023-04-19T00:08:00;100713.09;;;14.11;64.85
50684;BME280;36654;45.042;38.994;2023-04-19T00:10:26;100690.94;;;14.01;64.97
50684;BME280;36654;45.042;38.994;2023-04-19T00:12:51;100713.16;;;13.94;65.43
50684;BME280;36654;45.042;38.994;2023-04-19T00:15:17;100706.97;;;13.91;65.32
50684;BME280;36654;45.042;38.994;2023-04-19T00:17:43;100682.97;;;13.85;65.63
50684;BME280;36654;45.042;38.994;2023-04-19T00:20:09;100681.25;;;13.76;65.96
50684;BME280;36654;45.042;38.994;2023-04-19T00:22:37;100666.19;;;13.66;66.38
50684;BME280;36654;45.042;38.994;2023-04-19T00:25:03;100653.78;;;13.55;66.53
50684;BME280;36654;45.042;38.994;2023-04-19T00:27:29;100646.66;;;13.50;66.69
50684;BME280;36654;45.042;38.994;2023-04-19T00:29:55;100646.72;;;13.36;67.11
50684;BME280;36654;45.042;38.994;2023-04-19T00:32:22;100682.19;;;13.35;67.08
50684;BME280;36654;45.042;38.994;2023-04-19T00:34:48;100683.97;;;13.39;66.98
50684;BME280;36654;45.042;38.994;2023-04-19T00:37:13;100691.09;;;13.43;66.97
50684;BME280;36654;45.042;38.994;2023-04-19T00:39:39;100663.56;;;13.35;66.93
50684;BME280;36654;45.042;38.994;2023-04-19T00:42:04;100622.75;;;13.13;66.50
50684;BME280;36654;45.042;38.994;2023-04-19T00:44:30;100686.63;;;13.37;66.58
50684;BME280;36654;45.042;38.994;2023-04-19T00:46:56;100676.88;;;13.38;66.38
50684;BME280;36654;45.042;38.994;2023-04-19T00:49:22;100657.34;;;13.11;66.23
50684;BME280;36654;45.042;38.994;2023-04-19T00:51:49;100686.66;;;13.31;66.11
50684;BME280;36654;45.042;38.994;2023-04-19T00:54:16;100664.44;;;13.19;66.22
50684;BME280;36654;45.042;38.994;2023-04-19T00:56:44;100681.28;;;13.24;66.24
50684;BME280;36654;45.042;38.994;2023-04-19T00:59:10;100671.53;;;13.20;66.50
50684;BME280;36654;45.042;38.994;2023-04-19T01:01:37;100652.03;;;13.11;66.40
50684;BME280;36654;45.042;38.994;2023-04-19T01:04:04;100666.19;;;13.20;66.56
50684;BME280;36654;45.042;38.994;2023-04-19T01:06:29;100602.34;;;12.95;66.12
50684;BME280;36654;45.042;38.994;2023-04-19T01:08:56;100640.47;;;13.08;66.37
50684;BME280;36654;45.042;38.994;2023-04-19T01:11:25;100621.88;;;12.91;66.61
50684;BME280;36654;45.042;38.994;2023-04-19T01:13:51;100635.19;;;12.91;66.49
50684;BME280;36654;45.042;38.994;2023-04-19T01:16:17;100632.53;;;12.91;66.33
50684;BME280;36654;45.042;38.994;2023-04-19T01:18:43;100573.09;;;12.60;66.47
50684;BME280;36654;45.042;38.994;2023-04-19T01:21:09;100570.44;;;12.55;66.19
50684;BME280;36654;45.042;38.994;2023-04-19T01:23:35;100621.88;;;12.76;66.01
50684;BME280;36654;45.042;38.994;2023-04-19T01:26:01;100612.13;;;12.73;66.15
50684;BME280;36654;45.042;38.994;2023-04-19T01:28:27;100607.69;;;12.77;65.90
50684;BME280;36654;45.042;38.994;2023-04-19T01:30:53;100605.00;;;12.75;66.12
50684;BME280;36654;45.042;38.994;2023-04-19T01:33:22;100618.31;;;12.80;66.03
50684;BME280;36654;45.042;38.994;2023-04-19T01:35:47;100612.13;;;12.84;65.91
50684;BME280;36654;45.042;38.994;2023-04-19T01:38:14;100605.91;;;12.76;65.76
50684;BME280;36654;45.042;38.994;2023-04-19T01:40:40;100613.88;;;12.79;65.59
50684;BME280;36654;45.042;38.994;2023-04-19T01:43:06;100649.38;;;12.91;65.43
50684;BME280;36654;45.042;38.994;2023-04-19T01:45:32;100627.19;;;12.76;65.36
50684;BME280;36654;45.042;38.994;2023-04-19T01:47:59;100618.31;;;12.73;65.24
50684;BME280;36654;45.042;38.994;2023-04-19T01:50:27;100643.16;;;12.91;65.16
50684;BME280;36654;45.042;38.994;2023-04-19T01:52:52;100595.25;;;12.69;65.45
50684;BME280;36654;45.042;38.994;2023-04-19T01:55:18;100636.06;;;12.81;65.31
50684;BME280;36654;45.042;38.994;2023-04-19T01:57:43;100667.97;;;12.90;65.44
50684;BME280;36654;45.042;38.994;2023-04-19T02:00:10;100717.63;;;12.88;65.51
50684;BME280;36654;45.042;38.994;2023-04-19T02:02:36;100744.25;;;12.91;65.59
50684;BME280;36654;45.042;38.994;2023-04-19T02:05:06;100733.59;;;12.88;65.44
50684;BME280;36654;45.042;38.994;2023-04-19T02:07:32;100699.91;;;12.90;65.63
50684;BME280;36654;45.042;38.994;2023-04-19T02:09:57;100719.41;;;12.95;65.84
50684;BME280;36654;45.042;38.994;2023-04-19T02:12:26;100691.94;;;13.02;65.88
50684;BME280;36654;45.042;38.994;2023-04-19T02:14:56;100636.06;;;12.99;65.83
50684;BME280;36654;45.042;38.994;2023-04-19T02:17:22;100687.50;;;12.89;66.33
50684;BME280;36654;45.042;38.994;2023-04-19T02:19:48;100679.50;;;12.81;66.39
50684;BME280;36654;45.042;38.994;2023-04-19T02:22:14;100540.25;;;12.01;66.51
50684;BME280;36654;45.042;38.994;2023-04-19T02:24:39;100683.06;;;12.82;66.97
50684;BME280;36654;45.042;38.994;2023-04-19T02:27:05;100668.88;;;12.78;67.24
50684;BME280;36654;45.042;38.994;2023-04-19T02:29:31;100685.72;;;12.76;67.50
50684;BME280;36654;45.042;38.994;2023-04-19T02:31:57;100689.25;;;12.76;67.46
50684;BME280;36654;45.042;38.994;2023-04-19T02:34:23;100671.53;;;12.73;67.71
50684;BME280;36654;45.042;38.994;2023-04-19T02:36:48;100668.88;;;12.73;68.04
50684;BME280;36654;45.042;38.994;2023-04-19T02:39:14;100661.75;;;12.66;68.15
50684;BME280;36654;45.042;38.994;2023-04-19T02:41:41;100659.06;;;12.60;68.49
50684;BME280;36654;45.042;38.994;2023-04-19T02:44:07;100660.84;;;12.57;68.54
50684;BME280;36654;45.042;38.994;2023-04-19T02:46:33;100646.69;;;12.53;68.71
50684;BME280;36654;45.042;38.994;2023-04-19T02:49:02;100662.63;;;12.59;68.68
50684;BME280;36654;45.042;38.994;2023-04-19T02:51:27;100660.88;;;12.58;68.64
50684;BME280;36654;45.042;38.994;2023-04-19T02:53:53;100612.97;;;12.37;68.60
50684;BME280;36654;45.042;38.994;2023-04-19T02:56:19;100658.19;;;12.60;68.83
50684;BME280;36654;45.042;38.994;2023-04-19T02:58:45;100630.72;;;12.59;68.76
50684;BME280;36654;45.042;38.994;2023-04-19T03:01:11;100611.22;;;12.57;68.77
50684;BME280;36654;45.042;38.994;2023-04-19T03:03:36;100597.00;;;12.43;69.17
50684;BME280;36654;45.042;38.994;2023-04-19T03:06:02;100589.03;;;12.38;69.43
50684;BME280;36654;45.042;38.994;2023-04-19T03:08:28;100590.78;;;12.32;70.26
50684;BME280;36654;45.042;38.994;2023-04-19T03:10:53;100564.19;;;12.16;70.41
50684;BME280;36654;45.042;38.994;2023-04-19T03:13:19;100602.28;;;12.24;70.69
50684;BME280;36654;45.042;38.994;2023-04-19T03:15:46;100581.91;;;12.20;71.06
50684;BME280;36654;45.042;38.994;2023-04-19T03:20:37;100569.50;;;12.08;70.93
50684;BME280;36654;45.042;38.994;2023-04-19T03:23:03;100593.44;;;12.16;70.76
50684;BME280;36654;45.042;38.994;2023-04-19T03:25:28;100612.97;;;12.30;70.75
50684;BME280;36654;45.042;38.994;2023-04-19T03:27:55;100613.81;;;12.29;70.63
50684;BME280;36654;45.042;38.994;2023-04-19T03:30:20;100622.72;;;12.41;70.58
50684;BME280;36654;45.042;38.994;2023-04-19T03:32:46;100596.13;;;12.44;70.76
50684;BME280;36654;45.042;38.994;2023-04-19T03:35:12;100597.03;;;12.46;70.46
50684;BME280;36654;45.042;38.994;2023-04-19T03:37:38;100618.28;;;12.47;70.37
50684;BME280;36654;45.042;38.994;2023-04-19T03:40:04;100610.34;;;12.50;70.12
50684;BME280;36654;45.042;38.994;2023-04-19T03:42:30;100602.34;;;12.52;70.35
50684;BME280;36654;45.042;38.994;2023-04-19T03:44:55;100608.56;;;12.51;69.92
50684;BME280;36654;45.042;38.994;2023-04-19T03:47:21;100583.72;;;12.40;69.83
50684;BME280;36654;45.042;38.994;2023-04-19T03:49:47;100607.66;;;12.54;69.73
50684;BME280;36654;45.042;38.994;2023-04-19T03:52:13;100607.66;;;12.57;69.67
50684;BME280;36654;45.042;38.994;2023-04-19T03:54:38;100609.44;;;12.56;69.72
50684;BME280;36654;45.042;38.994;2023-04-19T03:57:04;100575.75;;;12.55;69.84
50684;BME280;36654;45.042;38.994;2023-04-19T03:59:30;100575.75;;;12.46;69.53
50684;BME280;36654;45.042;38.994;2023-04-19T04:01:55;100559.78;;;12.24;69.63
50684;BME280;36654;45.042;38.994;2023-04-19T04:04:21;100611.19;;;12.45;69.87
50684;BME280;36654;45.042;38.994;2023-04-19T04:06:47;100621.81;;;12.45;69.87
50684;BME280;36654;45.042;38.994;2023-04-19T04:09:12;100569.53;;;12.24;69.93
50684;BME280;36654;45.042;38.994;2023-04-19T04:11:38;100616.50;;;12.48;70.18
50684;BME280;36654;45.042;38.994;2023-04-19T04:14:03;100597.00;;;12.43;70.09
50684;BME280;36654;45.042;38.994;2023-04-19T04:16:29;100610.31;;;12.49;70.13
50684;BME280;36654;45.042;38.994;2023-04-19T04:18:55;100604.09;;;12.47;70.21
50684;BME280;36654;45.042;38.994;2023-04-19T04:21:20;100597.00;;;12.40;70.45
50684;BME280;36654;45.042;38.994;2023-04-19T04:23:48;100599.69;;;12.52;70.40
50684;BME280;36654;45.042;38.994;2023-04-19T04:26:14;100601.47;;;12.51;70.43
50684;BME280;36654;45.042;38.994;2023-04-19T04:28:42;100560.66;;;12.33;70.48
50684;BME280;36654;45.042;38.994;2023-04-19T04:31:08;100554.47;;;12.34;70.50
50684;BME280;36654;45.042;38.994;2023-04-19T04:33:34;100609.44;;;12.62;70.36
50684;BME280;36654;45.042;38.994;2023-04-19T04:36:00;100597.91;;;12.62;70.64
50684;BME280;36654;45.042;38.994;2023-04-19T04:38:25;100613.88;;;12.68;70.64
50684;BME280;36654;45.042;38.994;2023-04-19T04:40:55;100596.16;;;12.56;70.72
50684;BME280;36654;45.042;38.994;2023-04-19T04:43:22;100645.81;;;12.85;70.52
50684;BME280;36654;45.042;38.994;2023-04-19T04:45:48;100652.91;;;12.92;70.59
50684;BME280;36654;45.042;38.994;2023-04-19T04:48:14;100666.22;;;13.01;70.56
50684;BME280;36654;45.042;38.994;2023-04-19T04:50:40;100667.09;;;13.02;70.66
50684;BME280;36654;45.042;38.994;2023-04-19T04:53:06;100654.66;;;13.02;70.50
50684;BME280;36654;45.042;38.994;2023-04-19T04:55:33;100668.88;;;13.10;70.57
50684;BME280;36654;45.042;38.994;2023-04-19T04:57:58;100676.84;;;13.16;70.46
50684;BME280;36654;45.042;38.994;2023-04-19T05:00:24;100671.50;;;13.23;70.31
50684;BME280;36654;45.042;38.994;2023-04-19T05:02:50;100655.56;;;13.21;70.02
50684;BME280;36654;45.042;38.994;2023-04-19T05:05:15;100587.28;;;12.83;69.89
50684;BME280;36654;45.042;38.994;2023-04-19T05:07:41;100676.88;;;13.32;70.07
50684;BME280;36654;45.042;38.994;2023-04-19T05:10:07;100668.88;;;13.35;70.00
50684;BME280;36654;45.042;38.994;2023-04-19T05:12:33;100657.34;;;13.36;69.91
50684;BME280;36654;45.042;38.994;2023-04-19T05:14:58;100662.66;;;13.48;70.03
50684;BME280;36654;45.042;38.994;2023-04-19T05:17:24;100670.63;;;13.57;69.87
50684;BME280;36654;45.042;38.994;2023-04-19T05:19:49;100632.50;;;13.43;69.63
50684;BME280;36654;45.042;38.994;2023-04-19T05:22:15;100661.72;;;13.71;69.41
50684;BME280;36654;45.042;38.994;2023-04-19T05:24:41;100648.38;;;13.77;69.02
50684;BME280;36654;45.042;38.994;2023-04-19T05:27:06;100633.28;;;13.71;68.91
50684;BME280;36654;45.042;38.994;2023-04-19T05:29:32;100627.09;;;13.71;68.87
50684;BME280;36654;45.042;38.994;2023-04-19T05:31:58;100610.25;;;13.59;68.64
50684;BME280;36654;45.042;38.994;2023-04-19T05:34:23;100627.09;;;13.71;69.06
50684;BME280;36654;45.042;38.994;2023-04-19T05:36:49;100623.53;;;13.69;69.03
50684;BME280;36654;45.042;38.994;2023-04-19T05:39:15;100614.69;;;13.64;69.15
50684;BME280;36654;45.042;38.994;2023-04-19T05:41:41;100608.50;;;13.49;69.56
50684;BME280;36654;45.042;38.994;2023-04-19T05:44:07;100616.50;;;13.55;69.83
50684;BME280;36654;45.042;38.994;2023-04-19T05:46:33;100618.25;;;13.50;69.84
50684;BME280;36654;45.042;38.994;2023-04-19T05:48:58;100616.53;;;13.43;70.22
50684;BME280;36654;45.042;38.994;2023-04-19T05:51:24;100597.00;;;13.41;70.41
50684;BME280;36654;45.042;38.994;2023-04-19T05:53:51;100605.88;;;13.34;71.00
50684;BME280;36654;45.042;38.994;2023-04-19T05:56:17;100584.59;;;13.15;71.59
50684;BME280;36654;45.042;38.994;2023-04-19T05:58:43;100630.75;;;13.27;72.16
50684;BME280;36654;45.042;38.994;2023-04-19T06:01:08;100620.94;;;13.20;72.77
50684;BME280;36654;45.042;38.994;2023-04-19T06:03:34;100625.41;;;13.14;73.41
50684;BME280;36654;45.042;38.994;2023-04-19T06:06:00;100637.81;;;13.09;74.05
50684;BME280;36654;45.042;38.994;2023-04-19T06:08:25;100636.94;;;13.04;74.53
50684;BME280;36654;45.042;38.994;2023-04-19T06:10:51;100636.06;;;12.99;75.12
50684;BME280;36654;45.042;38.994;2023-04-19T06:13:18;100638.72;;;12.88;75.76
50684;BME280;36654;45.042;38.994;2023-04-19T06:15:45;100606.78;;;12.67;76.21
50684;BME280;36654;45.042;38.994;2023-04-19T06:18:10;100598.81;;;12.62;76.35
50684;BME280;36654;45.042;38.994;2023-04-19T06:20:36;100613.00;;;12.80;76.49
50684;BME280;36654;45.042;38.994;2023-04-19T06:23:02;100630.75;;;12.81;77.07
50684;BME280;36654;45.042;38.994;2023-04-19T06:25:28;100586.38;;;12.63;77.95
50684;BME280;36654;45.042;38.994;2023-04-19T06:27:53;100589.94;;;12.59;78.66
50684;BME280;36654;45.042;38.994;2023-04-19T06:30:19;100608.56;;;12.62;79.38
50684;BME280;36654;45.042;38.994;2023-04-19T06:32:45;100581.06;;;12.52;80.19
50684;BME280;36654;45.042;38.994;2023-04-19T06:35:11;100609.44;;;12.62;80.92
50684;BME280;36654;45.042;38.994;2023-04-19T06:37:36;100549.16;;;12.37;81.34
50684;BME280;36654;45.042;38.994;2023-04-19T06:40:02;100544.75;;;12.46;81.71
50684;BME280;36654;45.042;38.994;2023-04-19T06:42:31;100530.56;;;12.46;82.13
50684;BME280;36654;45.042;38.994;2023-04-19T06:44:56;100595.25;;;12.85;82.42
50684;BME280;36654;45.042;38.994;2023-04-19T06:47:22;100589.06;;;12.78;82.57
50684;BME280;36654;45.042;38.994;2023-04-19T06:49:48;100627.19;;;12.97;82.71
50684;BME280;36654;45.042;38.994;2023-04-19T06:52:13;100627.19;;;13.03;82.76
50684;BME280;36654;45.042;38.994;2023-04-19T06:54:39;100611.22;;;13.09;82.76
50684;BME280;36654;45.042;38.994;2023-04-19T06:57:05;100594.34;;;13.04;83.27
50684;BME280;36654;45.042;38.994;2023-04-19T06:59:30;100567.78;;;12.90;83.66
50684;BME280;36654;45.042;38.994;2023-04-19T07:01:56;100586.38;;;13.10;83.83
50684;BME280;36654;45.042;38.994;2023-04-19T07:04:25;100546.47;;;12.92;84.04
50684;BME280;36654;45.042;38.994;2023-04-19T07:06:51;100569.50;;;13.16;84.41
50684;BME280;36654;45.042;38.994;2023-04-19T07:09:17;100559.72;;;13.20;84.30
50684;BME280;36654;45.042;38.994;2023-04-19T07:11:43;100574.81;;;13.36;84.38
50684;BME280;36654;45.042;38.994;2023-04-19T07:14:08;100557.03;;;13.44;84.15
50684;BME280;36654;45.042;38.994;2023-04-19T07:16:34;100552.56;;;13.52;84.26
50684;BME280;36654;45.042;38.994;2023-04-19T07:18:59;100575.56;;;13.75;84.33
50684;BME280;36654;45.042;38.994;2023-04-19T07:21:25;100571.94;;;13.85;83.94
50684;BME280;36654;45.042;38.994;2023-04-19T07:23:53;100567.47;;;13.96;83.56
50684;BME280;36654;45.042;38.994;2023-04-19T07:26:18;100563.84;;;14.05;83.22
50684;BME280;36654;45.042;38.994;2023-04-19T07:28:44;100469.94;;;13.65;82.77
50684;BME280;36654;45.042;38.994;2023-04-19T07:31:16;100565.50;;;14.31;82.45
50684;BME280;36654;45.042;38.994;2023-04-19T07:33:43;100553.91;;;14.33;81.73
50684;BME280;36654;45.042;38.994;2023-04-19T07:36:08;100591.09;;;14.61;80.73
50684;BME280;36654;45.042;38.994;2023-04-19T07:38:34;100580.41;;;14.61;79.53
50684;BME280;36654;45.042;38.994;2023-04-19T07:41:00;100577.75;;;14.59;79.12
50684;BME280;36654;45.042;38.994;2023-04-19T07:43:26;100587.44;;;14.71;78.95
50684;BME280;36654;45.042;38.994;2023-04-19T07:45:53;100578.47;;;14.81;78.55
50684;BME280;36654;45.042;38.994;2023-04-19T07:48:19;100585.47;;;14.92;78.82
50684;BME280;36654;45.042;38.994;2023-04-19T07:50:45;100588.91;;;15.06;78.68
50684;BME280;36654;45.042;38.994;2023-04-19T07:53:10;100591.34;;;15.29;78.78
50684;BME280;36654;45.042;38.994;2023-04-19T07:55:36;100589.41;;;15.43;78.44
50684;BME280;36654;45.042;38.994;2023-04-19T07:58:02;100595.47;;;15.59;77.80
50684;BME280;36654;45.042;38.994;2023-04-19T08:00:27;100588.31;;;15.61;77.35
50684;BME280;36654;45.042;38.994;2023-04-19T08:02:55;100574.84;;;15.72;76.81
50684;BME280;36654;45.042;38.994;2023-04-19T08:05:23;100587.19;;;15.85;76.45
50684;BME280;36654;45.042;38.994;2023-04-19T08:07:51;100583.53;;;15.89;76.03
50684;BME280;36654;45.042;38.994;2023-04-19T08:10:18;100561.22;;;15.92;75.92
50684;BME280;36654;45.042;38.994;2023-04-19T08:12:43;100579.72;;;16.10;75.32
50684;BME280;36654;45.042;38.994;2023-04-19T08:15:09;100557.44;;;16.08;75.31
50684;BME280;36654;45.042;38.994;2023-04-19T08:17:35;100571.22;;;16.41;75.22
50684;BME280;36654;45.042;38.994;2023-04-19T08:20:01;100581.44;;;16.72;74.64
50684;BME280;36654;45.042;38.994;2023-04-19T08:22:26;100592.38;;;17.12;74.06
50684;BME280;36654;45.042;38.994;2023-04-19T08:24:52;100532.69;;;17.06;72.36
50684;BME280;36654;45.042;38.994;2023-04-19T08:27:18;100578.50;;;17.38;71.58
50684;BME280;36654;45.042;38.994;2023-04-19T08:29:44;100580.03;;;17.52;71.27
50684;BME280;36654;45.042;38.994;2023-04-19T08:32:11;100576.31;;;17.59;71.02
50684;BME280;36654;45.042;38.994;2023-04-19T08:34:38;100544.06;;;17.62;70.46
50684;BME280;36654;45.042;38.994;2023-04-19T08:37:04;100528.50;;;17.79;70.26
50684;BME280;36654;45.042;38.994;2023-04-19T08:39:32;100563.44;;;18.20;69.64
50684;BME280;36654;45.042;38.994;2023-04-19T08:42:06;100543.41;;;18.35;68.02
50684;BME280;36654;45.042;38.994;2023-04-19T08:44:33;100553.56;;;18.58;66.91
50684;BME280;36654;45.042;38.994;2023-04-19T08:46:59;100540.75;;;18.69;66.32
50684;BME280;36654;45.042;38.994;2023-04-19T08:49:28;100539.69;;;18.78;64.59
50684;BME280;36654;45.042;38.994;2023-04-19T08:51:56;100518.19;;;18.78;63.30
50684;BME280;36654;45.042;38.994;2023-04-19T08:54:22;100527.53;;;18.97;62.91
50684;BME280;36654;45.042;38.994;2023-04-19T08:56:48;100519.38;;;19.00;61.93
50684;BME280;36654;45.042;38.994;2023-04-19T08:59:14;100505.03;;;19.01;60.84
50684;BME280;36654;45.042;38.994;2023-04-19T09:01:40;100516.84;;;19.27;60.69
50684;BME280;36654;45.042;38.994;2023-04-19T09:04:06;100472.19;;;19.23;59.65
50684;BME280;36654;45.042;38.994;2023-04-19T09:06:39;100501.59;;;19.58;59.21
50684;BME280;36654;45.042;38.994;2023-04-19T09:09:28;100477.28;;;19.63;58.37
50684;BME280;36654;45.042;38.994;2023-04-19T09:11:54;100500.31;;;20.01;57.82
50684;BME280;36654;45.042;38.994;2023-04-19T09:14:21;100481.44;;;20.03;56.93
50684;BME280;36654;45.042;38.994;2023-04-19T09:16:47;100507.47;;;20.31;56.02
50684;BME280;36654;45.042;38.994;2023-04-19T09:19:13;100495.81;;;20.58;52.14
50684;BME280;36654;45.042;38.994;2023-04-19T09:21:42;100466.41;;;20.51;51.17
50684;BME280;36654;45.042;38.994;2023-04-19T09:24:08;100495.97;;;20.80;49.74
50684;BME280;36654;45.042;38.994;2023-04-19T09:26:34;100496.44;;;20.92;49.04
50684;BME280;36654;45.042;38.994;2023-04-19T09:31:32;100491.34;;;21.09;48.77
50684;BME280;36654;45.042;38.994;2023-04-19T09:34:18;100488.28;;;21.20;47.89
50684;BME280;36654;45.042;38.994;2023-04-19T09:36:45;100482.50;;;21.29;47.68
50684;BME280;36654;45.042;38.994;2023-04-19T09:39:10;100476.69;;;21.41;47.82
50684;BME280;36654;45.042;38.994;2023-04-19T09:41:52;100482.28;;;21.60;46.73
50684;BME280;36654;45.042;38.994;2023-04-19T09:44:18;100480.16;;;21.68;46.13
50684;BME280;36654;45.042;38.994;2023-04-19T09:46:44;100475.59;;;21.70;45.61
50684;BME280;36654;45.042;38.994;2023-04-19T09:51:41;100487.34;;;21.69;45.31
50684;BME280;36654;45.042;38.994;2023-04-19T09:54:09;100477.53;;;21.67;44.93
50684;BME280;36654;45.042;38.994;2023-04-19T09:56:35;100464.41;;;21.58;44.30
50684;BME280;36654;45.042;38.994;2023-04-19T09:59:04;100468.22;;;21.52;44.42
50684;BME280;36654;45.042;38.994;2023-04-19T10:01:55;100485.28;;;21.52;44.35
50684;BME280;36654;45.042;38.994;2023-04-19T10:04:24;100480.00;;;21.49;44.70
50684;BME280;36654;45.042;38.994;2023-04-19T10:06:52;100488.34;;;21.67;44.98
50684;BME280;36654;45.042;38.994;2023-04-19T10:09:21;100473.50;;;21.55;45.26
50684;BME280;36654;45.042;38.994;2023-04-19T10:11:52;100460.31;;;21.47;45.46
50684;BME280;36654;45.042;38.994;2023-04-19T10:14:22;100473.63;;;21.52;45.43
50684;BME280;36654;45.042;38.994;2023-04-19T10:16:49;100492.06;;;21.63;45.49
50684;BME280;36654;45.042;38.994;2023-04-19T10:19:17;100509.13;;;21.63;45.01
50684;BME280;36654;45.042;38.994;2023-04-19T10:21:43;100510.66;;;21.70;44.60
50684;BME280;36654;45.042;38.994;2023-04-19T10:24:14;100525.16;;;21.68;44.97
50684;BME280;36654;45.042;38.994;2023-04-19T10:27:11;100520.88;;;21.62;45.89
50684;BME280;36654;45.042;38.994;2023-04-19T10:30:01;100529.63;;;21.44;45.64
50684;BME280;36654;45.042;38.994;2023-04-19T10:32:37;100527.94;;;21.41;46.31
50684;BME280;36654;45.042;38.994;2023-04-19T10:35:16;100532.25;;;21.47;47.61
50684;BME280;36654;45.042;38.994;2023-04-19T10:38:11;100521.16;;;21.54;47.56
50684;BME280;36654;45.042;38.994;2023-04-19T10:40:56;100511.91;;;21.62;47.82
50684;BME280;36654;45.042;38.994;2023-04-19T10:43:29;100526.69;;;21.75;48.10
50684;BME280;36654;45.042;38.994;2023-04-19T10:46:08;100524.63;;;21.82;47.54
50684;BME280;36654;45.042;38.994;2023-04-19T10:49:00;100533.78;;;21.78;47.03
50684;BME280;36654;45.042;38.994;2023-04-19T10:51:36;100514.47;;;21.88;47.22
50684;BME280;36654;45.042;38.994;2023-04-19T10:54:07;100526.41;;;22.05;47.82
50684;BME280;36654;45.042;38.994;2023-04-19T11:01:40;100507.94;;;21.94;47.13
50684;BME280;36654;45.042;38.994;2023-04-19T11:09:32;100528.50;;;21.74;47.86
50684;BME280;36654;45.042;38.994;2023-04-19T11:12:06;100501.75;;;21.45;48.00
50684;BME280;36654;45.042;38.994;2023-04-19T11:14:56;100498.28;;;21.41;48.74
50684;BME280;36654;45.042;38.994;2023-04-19T11:17:28;100512.78;;;21.37;48.75
50684;BME280;36654;45.042;38.994;2023-04-19T11:19:56;100515.84;;;21.51;48.94
50684;BME280;36654;45.042;38.994;2023-04-19T11:22:30;100509.84;;;21.45;49.07
50684;BME280;36654;45.042;38.994;2023-04-19T11:25:20;100526.13;;;21.42;49.68
50684;BME280;36654;45.042;38.994;2023-04-19T11:27:50;100484.78;;;21.16;50.18
50684;BME280;36654;45.042;38.994;2023-04-19T11:30:19;100499.69;;;21.26;50.72
50684;BME280;36654;45.042;38.994;2023-04-19T11:32:52;100505.63;;;21.11;51.80
50684;BME280;36654;45.042;38.994;2023-04-19T11:35:22;100513.00;;;21.06;52.92
50684;BME280;36654;45.042;38.994;2023-04-19T11:37:49;100510.66;;;20.97;52.97
50684;BME280;36654;45.042;38.994;2023-04-19T11:40:16;100360.34;;;20.04;53.58
50684;BME280;36654;45.042;38.994;2023-04-19T11:42:45;100511.72;;;20.91;54.21
50684;BME280;36654;45.042;38.994;2023-04-19T11:45:22;100507.28;;;20.90;54.47
50684;BME280;36654;45.042;38.994;2023-04-19T11:47:54;100506.88;;;21.02;54.25
50684;BME280;36654;45.042;38.994;2023-04-19T11:50:31;100499.34;;;21.12;54.59
50684;BME280;36654;45.042;38.994;2023-04-19T11:52:58;100504.19;;;21.26;54.51
50684;BME280;36654;45.042;38.994;2023-04-19T11:55:24;100494.28;;;21.26;54.15
50684;BME280;36654;45.042;38.994;2023-04-19T11:57:50;100474.63;;;21.24;54.02
50684;BME280;36654;45.042;38.994;2023-04-19T12:00:26;100481.75;;;21.25;53.36
50684;BME280;36654;45.042;38.994;2023-04-19T12:02:52;100471.03;;;21.24;53.20
50684;BME280;36654;45.042;38.994;2023-04-19T12:05:18;100429.63;;;21.01;53.44
50684;BME280;36654;45.042;38.994;2023-04-19T12:08:03;100485.88;;;21.36;53.60
50684;BME280;36654;45.042;38.994;2023-04-19T12:10:30;100472.63;;;21.29;53.75
50684;BME280;36654;45.042;38.994;2023-04-19T12:12:59;100466.16;;;21.10;53.61
50684;BME280;36654;45.042;38.994;2023-04-19T12:15:44;100482.00;;;21.19;53.73
50684;BME280;36654;45.042;38.994;2023-04-19T12:18:10;100430.75;;;20.96;53.63
50684;BME280;36654;45.042;38.994;2023-04-19T12:20:42;100484.69;;;21.19;53.75
50684;BME280;36654;45.042;38.994;2023-04-19T12:23:07;100421.84;;;20.94;54.44
50684;BME280;36654;45.042;38.994;2023-04-19T12:25:35;100464.06;;;21.18;55.24
50684;BME280;36654;45.042;38.994;2023-04-19T12:28:02;100454.69;;;21.28;55.18
50684;BME280;36654;45.042;38.994;2023-04-19T12:30:28;100450.72;;;21.39;55.11
50684;BME280;36654;45.042;38.994;2023-04-19T12:32:56;100409.94;;;21.24;54.71
50684;BME280;36654;45.042;38.994;2023-04-19T12:35:23;100456.25;;;21.59;54.43
50684;BME280;36654;45.042;38.994;2023-04-19T12:37:51;100427.06;;;21.47;54.32
50684;BME280;36654;45.042;38.994;2023-04-19T12:40:17;100436.66;;;21.54;54.02
50684;BME280;36654;45.042;38.994;2023-04-19T12:42:43;100452.13;;;21.49;53.87
50684;BME280;36654;45.042;38.994;2023-04-19T12:45:09;100449.22;;;21.55;54.07
50684;BME280;36654;45.042;38.994;2023-04-19T12:47:35;100456.31;;;21.58;54.20
50684;BME280;36654;45.042;38.994;2023-04-19T12:50:01;100452.03;;;21.52;54.32
50684;BME280;36654;45.042;38.994;2023-04-19T12:52:27;100448.66;;;21.47;54.62
50684;BME280;36654;45.042;38.994;2023-04-19T12:54:53;100461.44;;;21.42;55.50
50684;BME280;36654;45.042;38.994;2023-04-19T12:57:18;100452.81;;;21.30;55.97
50684;BME280;36654;45.042;38.994;2023-04-19T12:59:44;100427.34;;;21.14;55.98